sensor_id;sensor_type;location;lat;lon;timestamp;P1;durP1;ratioP1;P2;durP2;ratioP2
53287;SDS011;39172;45.550;12.072;2023-06-10T00:00:42;2.30;;;1.73;;
53287;SDS011;39172;45.550;12.072;2023-06-10T00:06:43;2.10;;;1.90;;
53287;SDS011;39172;45.550;12.072;2023-06-10T00:12:44;1.67;;;1.58;;
53287;SDS011;39172;45.550;12.072;2023-06-10T00:18:45;1.60;;;1.50;;
53287;SDS011;39172;45.550;12.072;2023-06-10T00:24:47;1.33;;;1.20;;
53287;SDS011;39172;45.550;12.072;2023-06-10T00:30:48;1.67;;;1.52;;
53287;SDS011;39172;45.550;12.072;2023-06-10T00:36:49;2.10;;;1.80;;
53287;SDS011;39172;45.550;12.072;2023-06-10T00:42:51;2.00;;;1.80;;
53287;SDS011;39172;45.550;12.072;2023-06-10T00:48:52;2.45;;;1.98;;
53287;SDS011;39172;45.550;12.072;2023-06-10T00:54:53;1.70;;;1.60;;
53287;SDS011;39172;45.550;12.072;2023-06-10T01:00:54;2.50;;;2.08;;
53287;SDS011;39172;45.550;12.072;2023-06-10T01:12:58;1.75;;;1.55;;
53287;SDS011;39172;45.550;12.072;2023-06-10T01:18:59;1.42;;;1.30;;
53287;SDS011;39172;45.550;12.072;2023-06-10T01:25:00;2.03;;;1.80;;
53287;SDS011;39172;45.550;12.072;2023-06-10T01:31:16;1.90;;;1.70;;
53287;SDS011;39172;45.550;12.072;2023-06-10T01:37:19;3.35;;;2.40;;
53287;SDS011;39172;45.550;12.072;2023-06-10T01:43:22;2.80;;;2.50;;
53287;SDS011;39172;45.550;12.072;2023-06-10T01:49:23;2.58;;;2.20;;
53287;SDS011;39172;45.550;12.072;2023-06-10T01:55:25;2.40;;;2.20;;
53287;SDS011;39172;45.550;12.072;2023-06-10T02:01:25;3.80;;;2.80;;
53287;SDS011;39172;45.550;12.072;2023-06-10T02:07:26;2.22;;;2.03;;
53287;SDS011;39172;45.550;12.072;2023-06-10T02:13:27;3.25;;;2.67;;
53287;SDS011;39172;45.550;12.072;2023-06-10T02:19:28;3.13;;;2.83;;
53287;SDS011;39172;45.550;12.072;2023-06-10T02:25:29;3.17;;;2.88;;
53287;SDS011;39172;45.550;12.072;2023-06-10T02:31:31;2.83;;;2.47;;
53287;SDS011;39172;45.550;12.072;2023-06-10T02:37:33;2.88;;;2.63;;
53287;SDS011;39172;45.550;12.072;2023-06-10T02:43:34;4.53;;;4.13;;
53287;SDS011;39172;45.550;12.072;2023-06-10T02:49:36;2.58;;;2.38;;
53287;SDS011;39172;45.550;12.072;2023-06-10T02:55:37;2.55;;;2.35;;
53287;SDS011;39172;45.550;12.072;2023-06-10T03:01:43;2.70;;;2.50;;
53287;SDS011;39172;45.550;12.072;2023-06-10T03:07:45;2.17;;;1.98;;
53287;SDS011;39172;45.550;12.072;2023-06-10T03:13:49;2.15;;;1.95;;
53287;SDS011;39172;45.550;12.072;2023-06-10T03:19:53;2.00;;;1.80;;
53287;SDS011;39172;45.550;12.072;2023-06-10T03:25:54;1.73;;;1.63;;
53287;SDS011;39172;45.550;12.072;2023-06-10T03:31:55;2.38;;;2.15;;
53287;SDS011;39172;45.550;12.072;2023-06-10T03:37:58;1.60;;;1.50;;
53287;SDS011;39172;45.550;12.072;2023-06-10T03:43:59;1.60;;;1.50;;
53287;SDS011;39172;45.550;12.072;2023-06-10T03:50:01;3.47;;;3.17;;
53287;SDS011;39172;45.550;12.072;2023-06-10T03:56:04;1.63;;;1.38;;
53287;SDS011;39172;45.550;12.072;2023-06-10T04:02:05;2.13;;;1.42;;
53287;SDS011;39172;45.550;12.072;2023-06-10T04:08:08;2.65;;;1.70;;
53287;SDS011;39172;45.550;12.072;2023-06-10T04:14:09;1.60;;;1.50;;
53287;SDS011;39172;45.550;12.072;2023-06-10T04:20:11;1.65;;;1.55;;
53287;SDS011;39172;45.550;12.072;2023-06-10T04:26:15;2.10;;;1.90;;
53287;SDS011;39172;45.550;12.072;2023-06-10T04:32:17;1.63;;;1.45;;
53287;SDS011;39172;45.550;12.072;2023-06-10T04:38:18;1.50;;;1.40;;
53287;SDS011;39172;45.550;12.072;2023-06-10T04:44:19;1.55;;;1.45;;
53287;SDS011;39172;45.550;12.072;2023-06-10T04:50:20;1.40;;;1.30;;
53287;SDS011;39172;45.550;12.072;2023-06-10T04:56:21;1.73;;;1.58;;
53287;SDS011;39172;45.550;12.072;2023-06-10T05:02:22;1.42;;;1.33;;
53287;SDS011;39172;45.550;12.072;2023-06-10T05:08:23;2.05;;;1.50;;
53287;SDS011;39172;45.550;12.072;2023-06-10T05:14:24;1.98;;;1.77;;
53287;SDS011;39172;45.550;12.072;2023-06-10T05:20:25;2.40;;;2.20;;
53287;SDS011;39172;45.550;12.072;2023-06-10T05:26:26;5.85;;;4.57;;
53287;SDS011;39172;45.550;12.072;2023-06-10T05:32:27;3.75;;;3.13;;
53287;SDS011;39172;45.550;12.072;2023-06-10T05:38:28;5.18;;;4.32;;
53287;SDS011;39172;45.550;12.072;2023-06-10T05:44:29;3.13;;;2.85;;
53287;SDS011;39172;45.550;12.072;2023-06-10T05:50:29;6.50;;;5.90;;
53287;SDS011;39172;45.550;12.072;2023-06-10T05:56:30;4.57;;;4.15;;
53287;SDS011;39172;45.550;12.072;2023-06-10T06:02:31;6.82;;;6.13;;
53287;SDS011;39172;45.550;12.072;2023-06-10T06:08:32;3.33;;;3.03;;
53287;SDS011;39172;45.550;12.072;2023-06-10T06:14:36;6.05;;;5.45;;
53287;SDS011;39172;45.550;12.072;2023-06-10T06:20:37;5.40;;;4.90;;
53287;SDS011;39172;45.550;12.072;2023-06-10T06:26:38;7.47;;;6.45;;
53287;SDS011;39172;45.550;12.072;2023-06-10T06:32:39;5.68;;;5.07;;
53287;SDS011;39172;45.550;12.072;2023-06-10T06:38:40;4.18;;;3.30;;
53287;SDS011;39172;45.550;12.072;2023-06-10T06:44:41;6.22;;;5.63;;
53287;SDS011;39172;45.550;12.072;2023-06-10T06:50:42;6.07;;;5.18;;
53287;SDS011;39172;45.550;12.072;2023-06-10T06:56:43;4.43;;;4.03;;
53287;SDS011;39172;45.550;12.072;2023-06-10T07:02:44;4.20;;;3.80;;
53287;SDS011;39172;45.550;12.072;2023-06-10T07:08:45;3.05;;;2.75;;
53287;SDS011;39172;45.550;12.072;2023-06-10T07:14:46;4.15;;;3.75;;
53287;SDS011;39172;45.550;12.072;2023-06-10T07:20:47;2.90;;;2.30;;
53287;SDS011;39172;45.550;12.072;2023-06-10T07:26:48;3.10;;;2.80;;
53287;SDS011;39172;45.550;12.072;2023-06-10T07:32:49;3.53;;;3.22;;
53287;SDS011;39172;45.550;12.072;2023-06-10T07:38:50;3.33;;;3.03;;
53287;SDS011;39172;45.550;12.072;2023-06-10T07:44:51;5.05;;;4.55;;
53287;SDS011;39172;45.550;12.072;2023-06-10T07:50:52;6.28;;;5.05;;
53287;SDS011;39172;45.550;12.072;2023-06-10T07:56:52;5.38;;;4.88;;
53287;SDS011;39172;45.550;12.072;2023-06-10T08:02:54;6.78;;;5.38;;
53287;SDS011;39172;45.550;12.072;2023-06-10T08:08:54;4.75;;;4.25;;
53287;SDS011;39172;45.550;12.072;2023-06-10T08:14:55;5.40;;;4.00;;
53287;SDS011;39172;45.550;12.072;2023-06-10T08:20:56;3.90;;;3.50;;
53287;SDS011;39172;45.550;12.072;2023-06-10T08:26:57;7.47;;;5.80;;
53287;SDS011;39172;45.550;12.072;2023-06-10T08:32:59;6.60;;;5.85;;
53287;SDS011;39172;45.550;12.072;2023-06-10T08:39:00;5.55;;;4.93;;
53287;SDS011;39172;45.550;12.072;2023-06-10T08:45:01;6.78;;;5.55;;
53287;SDS011;39172;45.550;12.072;2023-06-10T08:51:03;5.93;;;5.32;;
53287;SDS011;39172;45.550;12.072;2023-06-10T08:57:05;7.28;;;6.60;;
53287;SDS011;39172;45.550;12.072;2023-06-10T09:03:06;7.50;;;6.30;;
53287;SDS011;39172;45.550;12.072;2023-06-10T09:09:09;9.75;;;8.75;;
53287;SDS011;39172;45.550;12.072;2023-06-10T09:15:10;7.72;;;6.93;;
53287;SDS011;39172;45.550;12.072;2023-06-10T09:21:12;6.38;;;5.63;;
53287;SDS011;39172;45.550;12.072;2023-06-10T09:27:13;5.28;;;4.47;;
53287;SDS011;39172;45.550;12.072;2023-06-10T09:33:14;5.63;;;5.13;;
53287;SDS011;39172;45.550;12.072;2023-06-10T09:39:17;11.88;;;10.07;;
53287;SDS011;39172;45.550;12.072;2023-06-10T09:45:18;5.85;;;5.25;;
53287;SDS011;39172;45.550;12.072;2023-06-10T09:51:19;9.82;;;8.13;;
53287;SDS011;39172;45.550;12.072;2023-06-10T09:57:20;6.20;;;5.38;;
53287;SDS011;39172;45.550;12.072;2023-06-10T10:03:22;7.05;;;5.80;;
53287;SDS011;39172;45.550;12.072;2023-06-10T10:09:23;9.13;;;8.18;;
53287;SDS011;39172;45.550;12.072;2023-06-10T10:15:25;10.15;;;8.98;;
53287;SDS011;39172;45.550;12.072;2023-06-10T10:21:30;9.73;;;8.70;;
53287;SDS011;39172;45.550;12.072;2023-06-10T10:27:36;7.50;;;6.60;;
53287;SDS011;39172;45.550;12.072;2023-06-10T10:33:46;7.45;;;6.75;;
53287;SDS011;39172;45.550;12.072;2023-06-10T10:39:48;11.45;;;10.25;;
53287;SDS011;39172;45.550;12.072;2023-06-10T10:45:59;10.40;;;9.20;;
53287;SDS011;39172;45.550;12.072;2023-06-10T10:52:01;10.98;;;9.75;;
53287;SDS011;39172;45.550;12.072;2023-06-10T10:58:03;10.52;;;9.38;;
53287;SDS011;39172;45.550;12.072;2023-06-10T11:04:04;7.28;;;6.57;;
53287;SDS011;39172;45.550;12.072;2023-06-10T11:10:11;7.45;;;6.75;;
53287;SDS011;39172;45.550;12.072;2023-06-10T11:16:14;12.77;;;11.48;;
53287;SDS011;39172;45.550;12.072;2023-06-10T11:22:20;10.13;;;9.03;;
53287;SDS011;39172;45.550;12.072;2023-06-10T11:28:21;9.27;;;8.27;;
53287;SDS011;39172;45.550;12.072;2023-06-10T11:34:28;8.52;;;7.68;;
53287;SDS011;39172;45.550;12.072;2023-06-10T11:40:30;8.65;;;7.50;;
53287;SDS011;39172;45.550;12.072;2023-06-10T11:46:31;6.90;;;6.20;;
53287;SDS011;39172;45.550;12.072;2023-06-10T11:52:32;7.07;;;6.25;;
53287;SDS011;39172;45.550;12.072;2023-06-10T11:58:34;9.77;;;8.77;;
53287;SDS011;39172;45.550;12.072;2023-06-10T12:04:35;10.85;;;9.18;;
53287;SDS011;39172;45.550;12.072;2023-06-10T12:10:43;8.57;;;7.53;;
53287;SDS011;39172;45.550;12.072;2023-06-10T12:16:53;6.43;;;5.78;;
53287;SDS011;39172;45.550;12.072;2023-06-10T12:22:54;7.22;;;6.50;;
53287;SDS011;39172;45.550;12.072;2023-06-10T12:28:55;9.05;;;8.15;;
53287;SDS011;39172;45.550;12.072;2023-06-10T12:35:02;8.25;;;6.78;;
53287;SDS011;39172;45.550;12.072;2023-06-10T12:41:04;7.15;;;6.30;;
53287;SDS011;39172;45.550;12.072;2023-06-10T12:47:09;7.30;;;6.25;;
53287;SDS011;39172;45.550;12.072;2023-06-10T12:53:10;7.03;;;6.00;;
53287;SDS011;39172;45.550;12.072;2023-06-10T12:59:14;6.97;;;5.88;;
53287;SDS011;39172;45.550;12.072;2023-06-10T13:05:15;7.32;;;6.32;;
53287;SDS011;39172;45.550;12.072;2023-06-10T13:11:17;8.30;;;6.70;;
53287;SDS011;39172;45.550;12.072;2023-06-10T13:17:18;7.45;;;6.45;;
53287;SDS011;39172;45.550;12.072;2023-06-10T13:23:18;7.35;;;6.60;;
53287;SDS011;39172;45.550;12.072;2023-06-10T13:29:19;7.88;;;6.88;;
53287;SDS011;39172;45.550;12.072;2023-06-10T13:35:20;5.47;;;4.90;;
53287;SDS011;39172;45.550;12.072;2023-06-10T13:41:21;7.05;;;5.68;;
53287;SDS011;39172;45.550;12.072;2023-06-10T13:47:22;8.30;;;6.10;;
53287;SDS011;39172;45.550;12.072;2023-06-10T13:53:23;4.20;;;3.65;;
53287;SDS011;39172;45.550;12.072;2023-06-10T13:59:24;4.35;;;3.70;;
53287;SDS011;39172;45.550;12.072;2023-06-10T14:05:25;3.67;;;3.17;;
53287;SDS011;39172;45.550;12.072;2023-06-10T14:11:25;3.33;;;2.60;;
53287;SDS011;39172;45.550;12.072;2023-06-10T14:17:26;4.10;;;2.80;;
53287;SDS011;39172;45.550;12.072;2023-06-10T14:23:27;3.30;;;3.00;;
53287;SDS011;39172;45.550;12.072;2023-06-10T14:29:28;3.75;;;2.90;;
53287;SDS011;39172;45.550;12.072;2023-06-10T14:35:29;3.60;;;3.30;;
53287;SDS011;39172;45.550;12.072;2023-06-10T14:41:30;3.78;;;3.40;;
53287;SDS011;39172;45.550;12.072;2023-06-10T14:47:31;4.13;;;3.22;;
53287;SDS011;39172;45.550;12.072;2023-06-10T14:53:32;3.70;;;3.40;;
53287;SDS011;39172;45.550;12.072;2023-06-10T14:59:33;4.75;;;3.38;;
53287;SDS011;39172;45.550;12.072;2023-06-10T15:05:37;4.22;;;3.67;;
53287;SDS011;39172;45.550;12.072;2023-06-10T15:11:38;4.70;;;3.75;;
53287;SDS011;39172;45.550;12.072;2023-06-10T15:17:39;3.80;;;3.40;;
53287;SDS011;39172;45.550;12.072;2023-06-10T15:23:40;4.25;;;3.20;;
53287;SDS011;39172;45.550;12.072;2023-06-10T15:29:40;3.35;;;2.85;;
53287;SDS011;39172;45.550;12.072;2023-06-10T15:35:41;4.43;;;2.17;;
53287;SDS011;39172;45.550;12.072;2023-06-10T15:41:42;3.30;;;1.88;;
53287;SDS011;39172;45.550;12.072;2023-06-10T15:47:44;3.00;;;2.50;;
53287;SDS011;39172;45.550;12.072;2023-06-10T15:53:45;4.07;;;2.33;;
53287;SDS011;39172;45.550;12.072;2023-06-10T15:59:47;4.50;;;2.30;;
53287;SDS011;39172;45.550;12.072;2023-06-10T16:05:47;2.88;;;2.33;;
53287;SDS011;39172;45.550;12.072;2023-06-10T16:11:48;3.65;;;2.22;;
53287;SDS011;39172;45.550;12.072;2023-06-10T16:17:49;3.08;;;2.40;;
53287;SDS011;39172;45.550;12.072;2023-06-10T16:23:50;5.20;;;2.80;;
53287;SDS011;39172;45.550;12.072;2023-06-10T16:29:52;3.00;;;2.67;;
53287;SDS011;39172;45.550;12.072;2023-06-10T16:35:55;3.47;;;3.15;;
53287;SDS011;39172;45.550;12.072;2023-06-10T16:41:56;3.78;;;2.50;;
53287;SDS011;39172;45.550;12.072;2023-06-10T16:47:57;4.78;;;2.60;;
53287;SDS011;39172;45.550;12.072;2023-06-10T16:53:58;3.83;;;2.38;;
53287;SDS011;39172;45.550;12.072;2023-06-10T16:59:59;3.45;;;2.60;;
53287;SDS011;39172;45.550;12.072;2023-06-10T17:06:00;7.00;;;2.60;;
53287;SDS011;39172;45.550;12.072;2023-06-10T17:12:01;6.18;;;3.42;;
53287;SDS011;39172;45.550;12.072;2023-06-10T17:18:02;3.83;;;3.25;;
53287;SDS011;39172;45.550;12.072;2023-06-10T17:24:03;4.10;;;3.70;;
53287;SDS011;39172;45.550;12.072;2023-06-10T17:30:04;6.85;;;3.63;;
53287;SDS011;39172;45.550;12.072;2023-06-10T17:36:05;4.30;;;3.30;;
53287;SDS011;39172;45.550;12.072;2023-06-10T17:42:06;6.15;;;3.95;;
53287;SDS011;39172;45.550;12.072;2023-06-10T17:48:07;5.75;;;3.80;;
53287;SDS011;39172;45.550;12.072;2023-06-10T17:54:08;4.50;;;3.60;;
53287;SDS011;39172;45.550;12.072;2023-06-10T18:00:09;4.88;;;4.10;;
53287;SDS011;39172;45.550;12.072;2023-06-10T18:06:12;3.97;;;3.58;;
53287;SDS011;39172;45.550;12.072;2023-06-10T18:12:12;4.53;;;3.80;;
53287;SDS011;39172;45.550;12.072;2023-06-10T18:18:13;3.75;;;3.00;;
53287;SDS011;39172;45.550;12.072;2023-06-10T18:24:14;3.58;;;3.28;;
53287;SDS011;39172;45.550;12.072;2023-06-10T18:30:15;4.57;;;4.00;;
53287;SDS011;39172;45.550;12.072;2023-06-10T18:36:16;4.50;;;4.10;;
53287;SDS011;39172;45.550;12.072;2023-06-10T18:42:17;6.45;;;5.03;;
53287;SDS011;39172;45.550;12.072;2023-06-10T18:48:18;4.65;;;4.20;;
53287;SDS011;39172;45.550;12.072;2023-06-10T18:54:19;4.53;;;3.83;;
53287;SDS011;39172;45.550;12.072;2023-06-10T19:00:20;4.57;;;4.18;;
53287;SDS011;39172;45.550;12.072;2023-06-10T19:06:21;5.05;;;4.40;;
53287;SDS011;39172;45.550;12.072;2023-06-10T19:12:22;3.40;;;3.10;;
53287;SDS011;39172;45.550;12.072;2023-06-10T19:18:23;3.30;;;3.00;;
53287;SDS011;39172;45.550;12.072;2023-06-10T19:24:24;2.80;;;2.60;;
53287;SDS011;39172;45.550;12.072;2023-06-10T19:30:25;3.83;;;3.38;;
53287;SDS011;39172;45.550;12.072;2023-06-10T19:36:26;3.05;;;2.63;;
53287;SDS011;39172;45.550;12.072;2023-06-10T19:42:27;2.47;;;2.28;;
53287;SDS011;39172;45.550;12.072;2023-06-10T19:48:27;3.55;;;3.25;;
53287;SDS011;39172;45.550;12.072;2023-06-10T19:54:28;2.60;;;2.40;;
53287;SDS011;39172;45.550;12.072;2023-06-10T20:00:29;3.22;;;2.92;;
53287;SDS011;39172;45.550;12.072;2023-06-10T20:06:30;3.92;;;3.55;;
53287;SDS011;39172;45.550;12.072;2023-06-10T20:12:31;3.63;;;3.33;;
53287;SDS011;39172;45.550;12.072;2023-06-10T20:18:34;3.45;;;3.15;;
53287;SDS011;39172;45.550;12.072;2023-06-10T20:24:35;3.20;;;2.90;;
53287;SDS011;39172;45.550;12.072;2023-06-10T20:30:36;3.20;;;2.70;;
53287;SDS011;39172;45.550;12.072;2023-06-10T20:36:38;2.88;;;2.60;;
53287;SDS011;39172;45.550;12.072;2023-06-10T20:42:39;2.50;;;2.30;;
53287;SDS011;39172;45.550;12.072;2023-06-10T20:48:40;2.40;;;2.17;;
53287;SDS011;39172;45.550;12.072;2023-06-10T20:54:41;2.63;;;2.42;;
53287;SDS011;39172;45.550;12.072;2023-06-10T21:00:42;2.42;;;2.22;;
53287;SDS011;39172;45.550;12.072;2023-06-10T21:06:43;2.83;;;2.47;;
53287;SDS011;39172;45.550;12.072;2023-06-10T21:12:45;2.30;;;2.10;;
53287;SDS011;39172;45.550;12.072;2023-06-10T21:18:46;1.92;;;1.83;;
53287;SDS011;39172;45.550;12.072;2023-06-10T21:24:47;2.05;;;1.85;;
53287;SDS011;39172;45.550;12.072;2023-06-10T21:30:48;1.80;;;1.70;;
53287;SDS011;39172;45.550;12.072;2023-06-10T21:36:50;4.43;;;4.03;;
53287;SDS011;39172;45.550;12.072;2023-06-10T21:42:50;4.88;;;4.35;;
53287;SDS011;39172;45.550;12.072;2023-06-10T21:48:52;4.22;;;3.83;;
53287;SDS011;39172;45.550;12.072;2023-06-10T21:54:53;5.50;;;4.93;;
53287;SDS011;39172;45.550;12.072;2023-06-10T22:00:54;2.83;;;2.63;;
53287;SDS011;39172;45.550;12.072;2023-06-10T22:06:55;3.03;;;2.72;;
53287;SDS011;39172;45.550;12.072;2023-06-10T22:12:56;2.10;;;1.90;;
53287;SDS011;39172;45.550;12.072;2023-06-10T22:18:56;2.33;;;2.13;;
53287;SDS011;39172;45.550;12.072;2023-06-10T22:24:57;2.53;;;2.30;;
53287;SDS011;39172;45.550;12.072;2023-06-10T22:30:58;2.22;;;2.03;;
53287;SDS011;39172;45.550;12.072;2023-06-10T22:36:59;2.00;;;1.80;;
53287;SDS011;39172;45.550;12.072;2023-06-10T22:43:00;1.90;;;1.70;;
53287;SDS011;39172;45.550;12.072;2023-06-10T22:49:01;1.88;;;1.70;;
53287;SDS011;39172;45.550;12.072;2023-06-10T22:55:02;1.80;;;1.60;;
53287;SDS011;39172;45.550;12.072;2023-06-10T23:01:05;2.97;;;2.67;;
53287;SDS011;39172;45.550;12.072;2023-06-10T23:07:06;2.10;;;1.90;;
53287;SDS011;39172;45.550;12.072;2023-06-10T23:13:06;2.08;;;1.88;;
53287;SDS011;39172;45.550;12.072;2023-06-10T23:19:07;1.88;;;1.70;;
53287;SDS011;39172;45.550;12.072;2023-06-10T23:25:09;1.50;;;1.40;;
53287;SDS011;39172;45.550;12.072;2023-06-10T23:31:11;3.20;;;2.90;;
53287;SDS011;39172;45.550;12.072;2023-06-10T23:37:12;3.33;;;3.03;;
53287;SDS011;39172;45.550;12.072;2023-06-10T23:43:13;2.03;;;1.60;;
53287;SDS011;39172;45.550;12.072;2023-06-10T23:49:14;2.00;;;1.70;;
53287;SDS011;39172;45.550;12.072;2023-06-10T23:55:15;1.70;;;1.27;;
